createdAt,value
2019-05-26T00:01:06.655Z,77.21
2019-05-26T00:03:40.294Z,77.23
2019-05-26T00:06:13.739Z,77.18
2019-05-26T00:08:47.233Z,77.17
2019-05-26T00:11:20.785Z,77.24
2019-05-26T00:13:54.280Z,77.13
2019-05-26T00:16:27.762Z,77.10
2019-05-26T00:19:01.285Z,77.05
2019-05-26T00:21:34.817Z,77.09
2019-05-26T00:24:08.315Z,77.05
2019-05-26T00:26:41.783Z,76.97
2019-05-26T00:29:15.369Z,76.96
2019-05-26T00:31:48.839Z,76.89
2019-05-26T00:34:22.405Z,76.89
2019-05-26T00:36:55.872Z,76.83
2019-05-26T00:39:29.369Z,76.86
2019-05-26T00:42:02.973Z,76.92
2019-05-26T00:44:36.543Z,76.82
2019-05-26T00:47:10.209Z,76.66
2019-05-26T00:49:43.723Z,76.62
2019-05-26T00:52:17.323Z,76.54
2019-05-26T00:54:50.973Z,76.56
2019-05-26T00:57:24.586Z,76.56
2019-05-26T00:59:58.245Z,76.62
2019-05-26T01:02:31.761Z,76.56
2019-05-26T01:05:06.778Z,76.44
2019-05-26T01:07:40.384Z,76.39
2019-05-26T01:10:14.242Z,76.39
2019-05-26T01:12:47.727Z,76.39
2019-05-26T01:15:21.567Z,76.52
2019-05-26T01:17:55.029Z,76.57
2019-05-26T01:20:28.625Z,76.59
2019-05-26T01:23:02.095Z,76.67
2019-05-26T01:25:35.686Z,76.69
2019-05-26T01:28:09.287Z,76.70
2019-05-26T01:30:42.826Z,76.67
2019-05-26T01:33:16.357Z,76.60
2019-05-26T01:35:50.391Z,76.58
2019-05-26T01:38:24.798Z,76.44
2019-05-26T01:40:58.322Z,76.67
2019-05-26T01:43:31.799Z,76.69
2019-05-26T01:46:05.436Z,76.80
2019-05-26T01:48:38.919Z,77.06
2019-05-26T01:51:12.491Z,76.92
2019-05-26T01:53:45.979Z,77.13
2019-05-26T01:56:19.595Z,77.20
2019-05-26T01:58:53.582Z,77.13
2019-05-26T02:01:27.187Z,77.03
2019-05-26T02:04:00.677Z,76.95
2019-05-26T02:06:34.255Z,77.17
2019-05-26T02:09:08.655Z,77.14
2019-05-26T02:11:42.173Z,77.38
2019-05-26T02:14:15.646Z,77.28
2019-05-26T02:16:49.227Z,77.26
2019-05-26T02:19:22.932Z,77.34
2019-05-26T02:21:56.529Z,77.51
2019-05-26T02:24:30.048Z,77.55
2019-05-26T02:27:03.675Z,77.48
2019-05-26T02:29:37.228Z,77.42
2019-05-26T02:32:10.796Z,77.48
2019-05-26T02:34:44.257Z,77.34
2019-05-26T02:37:17.932Z,77.44
2019-05-26T02:39:51.457Z,77.49
2019-05-26T02:42:25.111Z,77.45
2019-05-26T02:44:59.543Z,77.47
2019-05-26T02:47:33.286Z,77.49
2019-05-26T02:50:07.913Z,77.46
2019-05-26T02:52:41.487Z,77.53
2019-05-26T02:55:17.205Z,77.36
2019-05-26T02:57:50.840Z,77.37
2019-05-26T03:00:42.740Z,77.39
2019-05-26T03:03:17.067Z,77.23
2019-05-26T03:05:52.065Z,77.03
2019-05-26T03:08:26.807Z,76.99
2019-05-26T03:11:01.338Z,76.98
2019-05-26T03:13:37.966Z,76.89
2019-05-26T03:16:11.666Z,76.88
2019-05-26T03:18:47.507Z,76.87
2019-05-26T03:21:23.171Z,76.72
2019-05-26T03:23:58.165Z,76.74
2019-05-26T03:26:31.872Z,76.51
2019-05-26T03:29:05.541Z,76.41
2019-05-26T03:31:39.057Z,76.46
2019-05-26T03:34:12.549Z,76.42
2019-05-26T03:36:46.040Z,76.29
2019-05-26T03:39:19.677Z,76.12
2019-05-26T03:41:53.144Z,76.20
2019-05-26T03:44:26.739Z,76.03
2019-05-26T03:47:00.273Z,76.07
2019-05-26T03:49:33.896Z,75.86
2019-05-26T03:52:07.510Z,75.85
2019-05-26T03:54:41.035Z,75.68
2019-05-26T03:57:14.646Z,75.65
2019-05-26T03:59:48.271Z,75.50
2019-05-26T04:02:21.827Z,75.23
2019-05-26T04:04:55.415Z,75.07
2019-05-26T04:07:28.971Z,74.78
2019-05-26T04:10:06.099Z,74.62
2019-05-26T04:12:39.534Z,74.52
2019-05-26T04:15:13.440Z,74.37
2019-05-26T04:17:46.956Z,74.40
2019-05-26T04:20:20.554Z,74.27
2019-05-26T04:22:54.042Z,74.18
2019-05-26T04:25:27.554Z,74.03
2019-05-26T04:28:01.034Z,73.79
2019-05-26T04:30:34.554Z,73.78
2019-05-26T04:33:08.127Z,73.65
2019-05-26T04:35:41.692Z,73.52
2019-05-26T04:38:15.287Z,73.04
2019-05-26T04:40:48.810Z,73.28
2019-05-26T04:43:22.282Z,73.36
2019-05-26T04:45:55.841Z,73.16
2019-05-26T04:48:29.406Z,72.75
2019-05-26T04:51:02.975Z,72.57
2019-05-26T04:53:36.442Z,72.19
2019-05-26T04:56:09.940Z,71.87
2019-05-26T04:58:43.486Z,71.87
2019-05-26T05:01:16.982Z,71.70
2019-05-26T05:03:50.542Z,71.40
2019-05-26T05:06:24.179Z,71.40
2019-05-26T05:08:57.753Z,71.11
2019-05-26T05:11:31.313Z,70.65
2019-05-26T05:14:05.219Z,70.37
2019-05-26T05:16:38.795Z,70.17
2019-05-26T05:19:12.416Z,70.06
2019-05-26T05:21:45.917Z,70.01
2019-05-26T05:24:19.472Z,69.91
2019-05-26T05:26:53.031Z,69.60
2019-05-26T05:29:26.565Z,69.14
2019-05-26T05:32:00.039Z,68.90
2019-05-26T05:34:33.716Z,68.71
2019-05-26T05:37:07.366Z,68.29
2019-05-26T05:39:40.823Z,68.20
2019-05-26T05:42:14.389Z,67.68
2019-05-26T05:44:47.870Z,67.37
2019-05-26T05:47:24.420Z,67.21
2019-05-26T05:49:58.002Z,66.85
2019-05-26T05:52:31.493Z,66.51
2019-05-26T05:55:05.949Z,66.16
2019-05-26T05:57:39.571Z,65.79
2019-05-26T06:00:14.807Z,65.58
2019-05-26T06:02:48.406Z,65.52
2019-05-26T06:05:21.897Z,65.21
2019-05-26T06:07:55.431Z,64.66
2019-05-26T06:10:28.985Z,64.51
2019-05-26T06:13:02.469Z,64.20
2019-05-26T06:15:36.008Z,63.75
2019-05-26T06:18:09.661Z,63.53
2019-05-26T06:20:43.785Z,62.59
2019-05-26T06:23:17.273Z,62.13
2019-05-26T06:25:50.807Z,61.72
2019-05-26T06:28:24.363Z,61.13
2019-05-26T06:30:57.898Z,60.74
2019-05-26T06:33:31.453Z,60.63
2019-05-26T06:36:05.071Z,60.49
2019-05-26T06:38:38.638Z,60.23
2019-05-26T06:41:12.101Z,59.98
2019-05-26T06:43:45.713Z,59.69
2019-05-26T06:46:19.315Z,59.46
2019-05-26T06:48:52.955Z,59.35
2019-05-26T06:51:26.425Z,58.42
2019-05-26T06:53:59.987Z,58.20
2019-05-26T06:56:33.529Z,58.18
2019-05-26T06:59:07.179Z,58.09
2019-05-26T07:01:40.661Z,58.00
2019-05-26T07:04:14.219Z,57.49
2019-05-26T07:06:47.688Z,56.10
2019-05-26T07:09:21.259Z,56.31
2019-05-26T07:11:59.976Z,56.37
2019-05-26T07:14:30.084Z,56.37
2019-05-26T07:17:03.648Z,55.76
2019-05-26T07:19:37.122Z,55.95
2019-05-26T07:22:10.666Z,55.33
2019-05-26T07:24:44.146Z,55.28
2019-05-26T07:27:17.632Z,54.65
2019-05-26T07:29:51.200Z,55.11
2019-05-26T07:32:24.839Z,55.18
2019-05-26T07:34:58.333Z,54.71
2019-05-26T07:37:31.934Z,54.44
2019-05-26T07:40:06.891Z,54.17
2019-05-26T07:42:40.360Z,53.59
2019-05-26T07:45:14.293Z,53.66
2019-05-26T07:47:47.764Z,53.46
2019-05-26T07:50:21.379Z,53.55
2019-05-26T07:52:54.916Z,53.21
2019-05-26T07:55:28.633Z,52.83
2019-05-26T07:58:02.210Z,53.16
2019-05-26T08:00:35.852Z,53.26
2019-05-26T08:03:09.281Z,51.56
2019-05-26T08:05:42.853Z,51.63
2019-05-26T08:08:16.483Z,51.33
2019-05-26T08:10:50.464Z,51.20
2019-05-26T08:13:24.082Z,50.39
2019-05-26T08:15:57.562Z,50.67
2019-05-26T08:18:31.189Z,50.50
2019-05-26T08:21:05.018Z,49.48
2019-05-26T08:23:38.521Z,49.38
2019-05-26T08:26:12.324Z,49.54
2019-05-26T08:28:46.024Z,49.63
2019-05-26T08:31:19.678Z,49.38
2019-05-26T08:33:53.254Z,49.38
2019-05-26T08:36:26.960Z,48.70
2019-05-26T08:39:00.594Z,48.58
2019-05-26T08:41:34.299Z,48.86
2019-05-26T08:44:07.993Z,48.45
2019-05-26T08:46:41.614Z,48.95
2019-05-26T08:49:15.154Z,48.09
2019-05-26T08:51:48.797Z,47.81
2019-05-26T08:54:22.330Z,47.35
2019-05-26T08:56:55.895Z,47.37
2019-05-26T08:59:29.431Z,47.53
2019-05-26T09:02:02.991Z,47.80
2019-05-26T09:04:36.419Z,47.74
2019-05-26T09:07:09.990Z,47.69
2019-05-26T09:09:43.566Z,47.30
2019-05-26T09:12:17.142Z,47.62
2019-05-26T09:14:50.851Z,47.71
2019-05-26T09:17:24.428Z,47.17
2019-05-26T09:19:58.247Z,46.32
2019-05-26T09:22:31.983Z,46.84
2019-05-26T09:25:07.186Z,46.98
2019-05-26T09:27:40.872Z,47.25
2019-05-26T09:30:14.579Z,47.28
2019-05-26T09:32:48.320Z,47.31
2019-05-26T09:35:22.004Z,47.62
2019-05-26T09:37:55.473Z,47.80
2019-05-26T09:40:29.157Z,47.58
2019-05-26T09:43:15.146Z,47.05
2019-05-26T09:45:38.216Z,47.02
2019-05-26T09:48:11.753Z,46.76
2019-05-26T09:50:45.421Z,46.87
2019-05-26T09:53:19.018Z,46.42
2019-05-26T09:55:52.673Z,46.60
2019-05-26T09:58:26.330Z,46.24
2019-05-26T10:01:00.009Z,46.14
2019-05-26T10:03:33.579Z,45.73
2019-05-26T10:06:07.098Z,45.94
2019-05-26T10:08:40.720Z,46.03
2019-05-26T10:11:14.319Z,45.62
2019-05-26T10:13:48.009Z,44.79
2019-05-26T10:16:21.478Z,44.45
2019-05-26T10:18:55.019Z,44.71
2019-05-26T10:21:28.605Z,44.16
2019-05-26T10:24:02.053Z,43.73
2019-05-26T10:26:35.677Z,44.11
2019-05-26T10:29:09.415Z,44.01
2019-05-26T10:31:42.899Z,44.20
2019-05-26T10:34:16.377Z,44.38
2019-05-26T10:36:49.878Z,43.85
2019-05-26T10:39:23.348Z,44.01
2019-05-26T10:41:56.830Z,43.88
2019-05-26T10:44:30.368Z,44.50
2019-05-26T10:47:04.032Z,44.65
2019-05-26T10:49:37.507Z,45.12
2019-05-26T10:52:11.006Z,45.16
2019-05-26T10:54:44.517Z,44.93
2019-05-26T10:57:18.078Z,45.12
2019-05-26T10:59:51.601Z,45.50
2019-05-26T11:02:25.234Z,45.37
2019-05-26T11:04:58.812Z,45.08
2019-05-26T11:07:32.265Z,45.70
2019-05-26T11:10:07.861Z,45.83
2019-05-26T11:12:41.481Z,46.41
2019-05-26T11:15:15.398Z,47.12
2019-05-26T11:17:48.963Z,46.90
2019-05-26T11:20:22.686Z,46.14
2019-05-26T11:22:56.344Z,45.47
2019-05-26T11:25:29.980Z,44.92
2019-05-26T11:28:03.659Z,44.83
2019-05-26T11:30:37.281Z,43.92
2019-05-26T11:33:10.807Z,44.21
2019-05-26T11:35:44.345Z,43.88
2019-05-26T11:38:17.902Z,43.45
2019-05-26T11:40:51.440Z,43.03
2019-05-26T11:43:25.057Z,42.41
2019-05-26T11:45:58.678Z,42.40
2019-05-26T11:48:32.141Z,42.49
2019-05-26T11:51:05.840Z,42.42
2019-05-26T11:53:39.554Z,42.40
2019-05-26T11:56:13.197Z,42.34
2019-05-26T11:58:46.914Z,42.77
2019-05-26T12:01:23.133Z,42.75
2019-05-26T12:03:55.827Z,42.52
2019-05-26T12:06:29.438Z,42.47
2019-05-26T12:09:03.758Z,42.58
2019-05-26T12:11:37.324Z,41.95
2019-05-26T12:14:10.888Z,41.11
2019-05-26T12:16:44.351Z,41.27
2019-05-26T12:19:17.859Z,41.38
2019-05-26T12:21:51.323Z,41.78
2019-05-26T12:24:24.989Z,41.44
2019-05-26T12:26:58.514Z,41.41
2019-05-26T12:29:32.076Z,41.14
2019-05-26T12:32:06.088Z,40.54
2019-05-26T12:34:39.726Z,40.24
2019-05-26T12:37:13.193Z,40.66
2019-05-26T12:39:46.695Z,40.35
2019-05-26T12:42:20.242Z,40.68
2019-05-26T12:44:53.792Z,40.82
2019-05-26T12:47:27.258Z,40.14
2019-05-26T12:50:00.756Z,40.07
2019-05-26T12:52:34.290Z,40.42
2019-05-26T12:55:09.892Z,40.30
2019-05-26T12:57:43.614Z,40.60
2019-05-26T13:00:17.904Z,41.09
2019-05-26T13:02:51.439Z,41.29
2019-05-26T13:05:25.238Z,41.61
2019-05-26T13:07:58.886Z,41.32
2019-05-26T13:10:32.532Z,40.87
2019-05-26T13:13:06.905Z,39.75
2019-05-26T13:15:40.578Z,40.45
2019-05-26T13:18:14.328Z,40.43
2019-05-26T13:20:48.102Z,40.99
2019-05-26T13:23:21.655Z,39.75
2019-05-26T13:25:55.280Z,40.17
2019-05-26T13:28:28.832Z,40.41
2019-05-26T13:31:02.489Z,40.10
2019-05-26T13:33:36.113Z,39.59
2019-05-26T13:36:09.762Z,39.38
2019-05-26T13:38:43.508Z,39.63
2019-05-26T13:41:17.229Z,40.05
2019-05-26T13:43:50.793Z,39.72
2019-05-26T13:46:24.440Z,40.28
2019-05-26T13:48:58.073Z,39.89
2019-05-26T13:51:31.766Z,40.08
2019-05-26T13:54:05.605Z,39.70
2019-05-26T13:56:39.194Z,38.92
2019-05-26T13:59:12.852Z,38.97
2019-05-26T14:01:46.614Z,39.44
2019-05-26T14:04:20.214Z,39.76
2019-05-26T14:06:53.799Z,39.66
2019-05-26T14:09:27.435Z,39.68
2019-05-26T14:12:01.133Z,39.21
2019-05-26T14:14:35.260Z,39.17
2019-05-26T14:17:10.670Z,38.62
2019-05-26T14:19:47.186Z,38.81
2019-05-26T14:22:21.017Z,38.54
2019-05-26T14:24:54.626Z,38.97
2019-05-26T14:27:28.303Z,39.10
2019-05-26T14:30:01.984Z,39.13
2019-05-26T14:32:35.588Z,38.92
2019-05-26T14:35:10.041Z,39.24
2019-05-26T14:37:43.757Z,39.11
2019-05-26T14:40:17.531Z,39.43
2019-05-26T14:42:51.655Z,39.42
2019-05-26T14:45:25.378Z,39.00
2019-05-26T14:47:59.092Z,39.22
2019-05-26T14:50:32.716Z,39.32
2019-05-26T14:53:06.378Z,39.47
2019-05-26T14:55:40.086Z,39.56
2019-05-26T14:58:16.045Z,39.81
2019-05-26T15:00:49.244Z,39.90
2019-05-26T15:03:22.953Z,40.34
2019-05-26T15:06:05.558Z,40.55
2019-05-26T15:08:31.755Z,41.11
2019-05-26T15:11:05.785Z,41.58
2019-05-26T15:13:39.394Z,42.15
2019-05-26T15:16:13.126Z,42.91
2019-05-26T15:18:46.787Z,43.35
2019-05-26T15:21:20.540Z,43.77
2019-05-26T15:23:54.185Z,44.14
2019-05-26T15:26:27.914Z,44.20
2019-05-26T15:29:01.664Z,44.49
2019-05-26T15:31:35.321Z,44.65
2019-05-26T15:34:08.955Z,44.87
2019-05-26T15:36:42.697Z,45.10
2019-05-26T15:39:16.373Z,45.31
2019-05-26T15:41:50.112Z,45.55
2019-05-26T15:44:23.729Z,45.67
2019-05-26T15:46:57.339Z,45.91
2019-05-26T15:49:31.010Z,46.31
2019-05-26T15:52:04.659Z,47.09
2019-05-26T15:54:38.373Z,47.26
2019-05-26T15:57:12.075Z,47.57
2019-05-26T15:59:45.689Z,47.52
2019-05-26T16:02:19.396Z,47.40
2019-05-26T16:04:53.072Z,47.32
2019-05-26T16:07:26.727Z,46.70
2019-05-26T16:10:00.332Z,46.11
2019-05-26T16:12:33.838Z,45.51
2019-05-26T16:15:08.857Z,44.58
2019-05-26T16:17:42.431Z,44.00
2019-05-26T16:20:16.435Z,43.60
2019-05-26T16:22:50.082Z,43.93
2019-05-26T16:25:23.695Z,43.93
2019-05-26T16:27:57.462Z,43.87
2019-05-26T16:30:31.116Z,43.73
2019-05-26T16:33:05.423Z,43.56
2019-05-26T16:35:39.144Z,43.43
2019-05-26T16:38:12.711Z,43.54
2019-05-26T16:40:46.457Z,43.81
2019-05-26T16:43:20.193Z,44.00
2019-05-26T16:45:56.426Z,43.93
2019-05-26T16:48:29.095Z,44.13
2019-05-26T16:51:02.763Z,44.34
2019-05-26T16:53:36.329Z,44.33
2019-05-26T16:56:10.059Z,44.54
2019-05-26T16:58:43.529Z,44.88
2019-05-26T17:01:17.206Z,45.21
2019-05-26T17:03:50.819Z,45.37
2019-05-26T17:06:24.633Z,45.75
2019-05-26T17:08:58.369Z,45.98
2019-05-26T17:11:32.046Z,46.15
2019-05-26T17:14:06.194Z,46.33
2019-05-26T17:16:39.892Z,46.57
2019-05-26T17:19:13.517Z,46.73
2019-05-26T17:21:47.204Z,46.74
2019-05-26T17:24:20.792Z,46.95
2019-05-26T17:26:54.452Z,47.19
2019-05-26T17:29:28.120Z,47.27
2019-05-26T17:32:01.829Z,47.41
2019-05-26T17:34:35.478Z,47.56
2019-05-26T17:37:08.988Z,47.69
2019-05-26T17:39:42.599Z,47.69
2019-05-26T17:42:16.310Z,47.83
2019-05-26T17:44:49.923Z,48.00
2019-05-26T17:47:30.311Z,48.14
2019-05-26T17:50:15.052Z,48.38
2019-05-26T17:52:48.700Z,48.56
2019-05-26T17:55:22.370Z,48.76
2019-05-26T17:57:56.039Z,48.98
2019-05-26T18:00:29.688Z,49.36
2019-05-26T18:03:03.245Z,49.54
2019-05-26T18:05:37.008Z,49.67
2019-05-26T18:08:10.580Z,49.86
2019-05-26T18:10:44.282Z,49.89
2019-05-26T18:13:18.093Z,49.95
2019-05-26T18:15:51.751Z,50.25
2019-05-26T18:18:25.424Z,50.43
2019-05-26T18:20:59.032Z,50.63
2019-05-26T18:23:32.779Z,51.11
2019-05-26T18:26:06.491Z,51.64
2019-05-26T18:28:40.110Z,52.18
2019-05-26T18:31:13.774Z,53.05
2019-05-26T18:33:47.385Z,54.28
2019-05-26T18:36:20.994Z,55.24
2019-05-26T18:38:54.843Z,56.41
2019-05-26T18:41:28.324Z,57.63
2019-05-26T18:44:01.973Z,58.66
2019-05-26T18:46:35.641Z,59.30
2019-05-26T18:49:09.331Z,60.40
2019-05-26T18:51:43.096Z,61.63
2019-05-26T18:54:16.863Z,62.79
2019-05-26T18:56:50.371Z,63.56
2019-05-26T18:59:23.992Z,64.23
2019-05-26T19:01:57.620Z,65.31
2019-05-26T19:04:31.161Z,66.29
2019-05-26T19:07:05.072Z,66.20
2019-05-26T19:09:38.722Z,66.84
2019-05-26T19:12:12.710Z,68.38
2019-05-26T19:14:46.314Z,68.50
2019-05-26T19:17:19.961Z,69.25
2019-05-26T19:19:53.817Z,69.63
2019-05-26T19:22:27.531Z,70.62
2019-05-26T19:25:01.239Z,70.96
2019-05-26T19:27:34.981Z,71.75
2019-05-26T19:30:09.850Z,72.07
2019-05-26T19:32:43.582Z,73.73
2019-05-26T19:35:17.377Z,73.37
2019-05-26T19:37:51.006Z,73.34
2019-05-26T19:40:24.709Z,74.18
2019-05-26T19:42:58.341Z,73.85
2019-05-26T19:45:31.990Z,74.49
2019-05-26T19:48:05.746Z,75.75
2019-05-26T19:50:39.401Z,75.12
2019-05-26T19:53:13.059Z,75.99
2019-05-26T19:55:46.676Z,75.48
2019-05-26T19:58:20.160Z,76.75
2019-05-26T20:00:53.860Z,77.01
2019-05-26T20:03:27.607Z,77.41
2019-05-26T20:06:01.282Z,77.61
2019-05-26T20:08:35.628Z,78.52
2019-05-26T20:11:09.311Z,78.65
2019-05-26T20:13:42.951Z,78.29
2019-05-26T20:16:16.761Z,78.01
2019-05-26T20:18:50.377Z,78.02
2019-05-26T20:21:23.985Z,77.60
2019-05-26T20:23:57.544Z,77.57
2019-05-26T20:26:31.209Z,77.56
2019-05-26T20:29:05.077Z,77.69
2019-05-26T20:31:38.665Z,77.81
2019-05-26T20:34:12.250Z,77.61
2019-05-26T20:36:45.952Z,77.87
2019-05-26T20:39:19.618Z,77.82
2019-05-26T20:41:53.159Z,77.91
2019-05-26T20:44:26.707Z,77.88
2019-05-26T20:47:00.227Z,77.74
2019-05-26T20:49:44.881Z,77.69
2019-05-26T20:52:09.019Z,77.59
2019-05-26T20:54:42.493Z,77.65
2019-05-26T20:57:15.993Z,77.59
2019-05-26T20:59:49.622Z,77.51
2019-05-26T21:02:23.129Z,77.62
2019-05-26T21:04:56.621Z,77.57
2019-05-26T21:07:30.127Z,77.44
2019-05-26T21:10:05.236Z,77.32
2019-05-26T21:12:38.961Z,77.15
2019-05-26T21:15:13.075Z,77.03
2019-05-26T21:17:46.577Z,77.09
2019-05-26T21:20:20.717Z,76.97
2019-05-26T21:22:54.385Z,76.92
2019-05-26T21:25:27.927Z,76.89
2019-05-26T21:28:01.567Z,76.77
2019-05-26T21:30:35.973Z,76.83
2019-05-26T21:33:09.539Z,76.73
2019-05-26T21:35:43.025Z,76.66
2019-05-26T21:38:16.568Z,76.56
2019-05-26T21:40:50.072Z,76.44
2019-05-26T21:43:23.559Z,76.35
2019-05-26T21:45:57.119Z,76.27
2019-05-26T21:48:30.745Z,76.15
2019-05-26T21:51:04.424Z,75.91
2019-05-26T21:53:37.985Z,75.85
2019-05-26T21:56:11.628Z,75.73
2019-05-26T21:58:45.123Z,75.62
2019-05-26T22:01:18.659Z,75.52
2019-05-26T22:03:52.244Z,75.38
2019-05-26T22:06:25.855Z,75.25
2019-05-26T22:08:59.424Z,75.24
2019-05-26T22:11:32.987Z,75.03
2019-05-26T22:14:06.631Z,74.87
2019-05-26T22:16:40.119Z,74.79
2019-05-26T22:19:13.636Z,74.61
2019-05-26T22:21:47.178Z,74.42
2019-05-26T22:24:20.717Z,74.30
2019-05-26T22:26:54.264Z,73.98
2019-05-26T22:29:27.762Z,73.73
2019-05-26T22:32:01.241Z,73.65
2019-05-26T22:34:34.756Z,73.39
2019-05-26T22:37:08.310Z,73.25
2019-05-26T22:39:41.876Z,73.04
2019-05-26T22:42:15.360Z,72.87
2019-05-26T22:44:49.050Z,72.90
2019-05-26T22:47:22.519Z,72.72
2019-05-26T22:49:57.754Z,72.76
2019-05-26T22:52:31.241Z,72.89
2019-05-26T22:55:09.003Z,73.44
2019-05-26T22:57:42.488Z,74.27
2019-05-26T23:00:18.137Z,75.68
2019-05-26T23:02:51.648Z,76.18
2019-05-26T23:05:25.158Z,76.75
2019-05-26T23:07:58.648Z,77.91
2019-05-26T23:10:32.147Z,78.48
2019-05-26T23:13:05.740Z,78.82
2019-05-26T23:15:39.201Z,79.19
2019-05-26T23:18:12.688Z,79.52
2019-05-26T23:20:46.338Z,79.82
2019-05-26T23:23:19.802Z,80.29
2019-05-26T23:25:53.439Z,80.37
2019-05-26T23:28:26.988Z,80.59
2019-05-26T23:31:00.549Z,81.09
2019-05-26T23:33:34.019Z,81.14
2019-05-26T23:36:07.614Z,81.33
2019-05-26T23:38:41.095Z,81.43
2019-05-26T23:41:14.636Z,81.68
2019-05-26T23:43:48.102Z,81.96
2019-05-26T23:46:21.675Z,82.06
2019-05-26T23:48:55.144Z,82.23
2019-05-26T23:51:28.736Z,82.43
2019-05-26T23:54:02.217Z,82.71
2019-05-26T23:56:35.714Z,82.80
2019-05-26T23:59:09.199Z,82.87
